createdAt,value
2023-05-02T00:00:05.815Z,100405.00
2023-05-02T00:03:08.618Z,100401.50
2023-05-02T00:06:12.227Z,100411.19
2023-05-02T00:09:15.739Z,100401.00
2023-05-02T00:12:18.633Z,100396.91
2023-05-02T00:15:21.516Z,100396.97
2023-05-02T00:18:24.491Z,100392.72
2023-05-02T00:21:29.264Z,100391.13
2023-05-02T00:24:31.903Z,100412.06
2023-05-02T00:27:34.481Z,100408.09
2023-05-02T00:30:37.385Z,100412.06
2023-05-02T00:33:39.952Z,100399.09
2023-05-02T00:36:42.758Z,100397.13
2023-05-02T00:39:45.399Z,100399.13
2023-05-02T00:42:48.315Z,100394.28
2023-05-02T00:45:51.159Z,100398.34
2023-05-02T00:48:54.058Z,100402.00
2023-05-02T00:51:56.824Z,100404.44
2023-05-02T00:55:01.632Z,100399.78
2023-05-02T00:58:22.350Z,100411.59
2023-05-02T01:01:48.792Z,100402.91
2023-05-02T01:05:28.718Z,100410.19
2023-05-02T01:08:45.376Z,100402.22
2023-05-02T01:11:59.909Z,100405.91
2023-05-02T01:15:06.342Z,100399.22
2023-05-02T01:18:15.878Z,100404.88
2023-05-02T01:21:19.026Z,100402.53
2023-05-02T01:24:48.070Z,100402.38
2023-05-02T01:28:21.582Z,100401.75
2023-05-02T01:31:27.872Z,100394.59
2023-05-02T01:34:32.741Z,100397.72
2023-05-02T01:37:38.314Z,100388.50
2023-05-02T01:40:46.040Z,100398.13
2023-05-02T01:43:49.837Z,100397.38
2023-05-02T01:46:55.104Z,100382.13
2023-05-02T01:49:59.818Z,100393.50
2023-05-02T01:53:04.894Z,100372.16
2023-05-02T01:56:07.950Z,100383.94
2023-05-02T01:59:17.058Z,100379.19
2023-05-02T02:02:21.101Z,100395.63
2023-05-02T02:05:25.134Z,100380.00
2023-05-02T02:08:27.846Z,100386.03
2023-05-02T02:11:37.602Z,100381.44
2023-05-02T02:14:49.957Z,100387.09
2023-05-02T02:18:00.852Z,100377.28
2023-05-02T02:21:08.114Z,100374.59
2023-05-02T02:24:13.347Z,100383.34
2023-05-02T02:27:16.431Z,100374.09
2023-05-02T02:30:19.514Z,100370.78
2023-05-02T02:33:28.134Z,100366.25
2023-05-02T02:36:49.810Z,100374.34
2023-05-02T02:40:16.796Z,100374.94
2023-05-02T02:43:27.644Z,100380.41
2023-05-02T02:46:36.882Z,100372.41
2023-05-02T02:50:12.559Z,100376.75
2023-05-02T02:53:19.650Z,100374.94
2023-05-02T02:56:29.006Z,100383.09
2023-05-02T02:59:35.508Z,100375.81
2023-05-02T03:02:41.753Z,100378.31
2023-05-02T03:05:44.985Z,100372.78
2023-05-02T03:08:48.401Z,100383.75
2023-05-02T03:11:55.297Z,100378.41
2023-05-02T03:15:27.306Z,100378.22
2023-05-02T03:18:30.027Z,100389.94
2023-05-02T03:21:34.176Z,100388.56
2023-05-02T03:24:42.831Z,100385.22
2023-05-02T03:27:48.356Z,100391.00
2023-05-02T03:30:51.263Z,100391.19
2023-05-02T03:33:54.603Z,100386.94
2023-05-02T03:36:57.918Z,100392.97
2023-05-02T03:40:01.878Z,100397.31
2023-05-02T03:43:05.566Z,100396.19
2023-05-02T03:46:11.573Z,100404.16
2023-05-02T03:49:19.786Z,100403.06
2023-05-02T03:52:24.731Z,100404.03
2023-05-02T03:55:29.677Z,100406.00
2023-05-02T03:58:36.425Z,100418.91
2023-05-02T04:01:40.242Z,100419.91
2023-05-02T04:04:44.594Z,100419.25
2023-05-02T04:07:50.655Z,100420.63
2023-05-02T04:10:54.195Z,100417.25
2023-05-02T04:13:57.617Z,100423.94
2023-05-02T04:17:00.287Z,100424.50
2023-05-02T04:20:23.265Z,100416.38
2023-05-02T04:23:28.822Z,100418.75
2023-05-02T04:26:35.535Z,100433.72
2023-05-02T04:29:42.637Z,100431.78
2023-05-02T04:32:46.950Z,100435.13
2023-05-02T04:35:50.606Z,100430.06
2023-05-02T04:38:54.685Z,100429.72
2023-05-02T04:41:58.062Z,100430.41
2023-05-02T04:45:03.078Z,100436.44
2023-05-02T04:48:05.981Z,100441.72
2023-05-02T04:51:10.092Z,100439.59
2023-05-02T04:54:12.980Z,100435.94
2023-05-02T04:57:17.695Z,100442.47
2023-05-02T05:00:24.716Z,100446.63
2023-05-02T05:03:33.325Z,100445.16
2023-05-02T05:06:36.481Z,100448.69
2023-05-02T05:09:39.565Z,100440.06
2023-05-02T05:12:42.475Z,100450.44
2023-05-02T05:15:47.504Z,100450.81
2023-05-02T05:18:53.917Z,100441.84
2023-05-02T05:21:56.549Z,100454.63
2023-05-02T05:24:59.565Z,100457.44
2023-05-02T05:28:05.372Z,100454.16
2023-05-02T05:31:14.487Z,100450.66
2023-05-02T05:34:21.226Z,100460.78
2023-05-02T05:37:25.393Z,100455.50
2023-05-02T05:40:28.238Z,100469.97
2023-05-02T05:43:35.591Z,100462.28
2023-05-02T05:46:39.356Z,100462.41
2023-05-02T05:49:43.982Z,100471.00
2023-05-02T05:52:46.670Z,100471.31
2023-05-02T05:55:49.440Z,100467.91
2023-05-02T05:58:52.306Z,100483.53
2023-05-02T06:01:55.069Z,100479.06
2023-05-02T06:04:59.402Z,100472.25
2023-05-02T06:08:02.362Z,100467.41
2023-05-02T06:11:11.860Z,100471.78
2023-05-02T06:14:14.925Z,100480.31
2023-05-02T06:17:18.481Z,100479.84
2023-05-02T06:20:21.397Z,100478.88
2023-05-02T06:23:25.114Z,100478.84
2023-05-02T06:26:28.092Z,100492.59
2023-05-02T06:29:31.829Z,100465.88
2023-05-02T06:32:34.622Z,100467.19
2023-05-02T06:35:37.177Z,100486.09
2023-05-02T06:38:39.978Z,100484.25
2023-05-02T06:41:42.729Z,100483.25
2023-05-02T06:44:51.521Z,100484.59
2023-05-02T06:47:54.336Z,100483.94
2023-05-02T06:50:57.300Z,100492.63
2023-05-02T06:54:00.634Z,100491.44
2023-05-02T06:57:03.310Z,100488.44
2023-05-02T07:00:09.190Z,100485.72
2023-05-02T07:03:11.927Z,100482.13
2023-05-02T07:06:14.667Z,100481.59
2023-05-02T07:09:17.514Z,100474.13
2023-05-02T07:12:20.941Z,100472.19
2023-05-02T07:15:23.623Z,100477.78
2023-05-02T07:18:26.662Z,100477.66
2023-05-02T07:21:29.316Z,100477.72
2023-05-02T07:24:33.069Z,100475.91
2023-05-02T07:27:35.678Z,100470.00
2023-05-02T07:30:38.406Z,100472.63
2023-05-02T07:33:41.300Z,100478.16
2023-05-02T07:36:44.049Z,100480.31
2023-05-02T07:39:46.787Z,100478.06
2023-05-02T07:42:50.849Z,100487.66
2023-05-02T07:45:56.536Z,100488.56
2023-05-02T07:48:59.477Z,100487.38
2023-05-02T07:52:02.556Z,100485.25
2023-05-02T07:55:05.690Z,100490.09
2023-05-02T07:58:08.298Z,100491.44
2023-05-02T08:01:11.731Z,100483.19
2023-05-02T08:04:14.570Z,100485.38
2023-05-02T08:07:17.488Z,100493.66
2023-05-02T08:10:20.429Z,100486.25
2023-05-02T08:13:23.989Z,100492.34
2023-05-02T08:16:26.717Z,100483.59
2023-05-02T08:19:29.259Z,100490.03
2023-05-02T08:22:32.002Z,100484.91
2023-05-02T08:25:35.045Z,100490.53
2023-05-02T08:28:43.192Z,100484.22
2023-05-02T08:31:47.292Z,100477.56
2023-05-02T08:34:49.966Z,100471.44
2023-05-02T08:37:52.550Z,100475.34
2023-05-02T08:40:55.267Z,100481.50
2023-05-02T08:44:00.038Z,100475.22
2023-05-02T08:47:03.234Z,100472.59
2023-05-02T08:50:06.834Z,100456.84
2023-05-02T08:53:11.178Z,100462.56
2023-05-02T08:56:14.426Z,100463.41
2023-05-02T08:59:18.770Z,100465.63
2023-05-02T09:02:43.928Z,100467.25
2023-05-02T09:05:56.691Z,100444.06
2023-05-02T09:09:04.000Z,100453.22
2023-05-02T09:12:06.787Z,100449.00
2023-05-02T09:15:18.238Z,100448.44
2023-05-02T09:18:23.587Z,100448.22
2023-05-02T09:21:40.041Z,100444.25
2023-05-02T09:24:43.088Z,100440.72
2023-05-02T09:27:51.399Z,100449.91
2023-05-02T09:31:49.635Z,100454.34
2023-05-02T09:35:06.734Z,100444.31
2023-05-02T09:38:21.133Z,100441.53
2023-05-02T09:41:23.707Z,100443.97
2023-05-02T09:44:37.037Z,100445.34
2023-05-02T09:47:41.943Z,100443.84
2023-05-02T09:50:45.324Z,100439.34
2023-05-02T09:53:50.008Z,100434.81
2023-05-02T09:56:56.504Z,100436.84
2023-05-02T09:59:59.320Z,100437.84
2023-05-02T10:03:04.800Z,100426.22
2023-05-02T10:06:22.876Z,100426.31
2023-05-02T10:09:28.020Z,100438.63
2023-05-02T10:12:32.844Z,100432.25
2023-05-02T10:15:42.592Z,100418.91
2023-05-02T10:19:00.151Z,100441.78
2023-05-02T10:22:03.715Z,100437.63
2023-05-02T10:25:07.139Z,100427.44
2023-05-02T10:28:11.324Z,100416.34
2023-05-02T10:31:16.299Z,100425.25
2023-05-02T10:34:19.097Z,100424.50
2023-05-02T10:37:23.105Z,100410.75
2023-05-02T10:40:27.463Z,100424.34
2023-05-02T10:43:35.533Z,100405.09
2023-05-02T10:46:43.404Z,100409.63
2023-05-02T10:49:58.335Z,100401.06
2023-05-02T10:53:23.727Z,100407.50
2023-05-02T10:56:29.188Z,100400.03
2023-05-02T10:59:42.743Z,100394.03
2023-05-02T11:02:45.973Z,100380.66
2023-05-02T11:06:18.186Z,100384.81
2023-05-02T11:09:23.875Z,100397.47
2023-05-02T11:12:48.744Z,100381.59
2023-05-02T11:15:51.520Z,100367.16
2023-05-02T11:19:01.431Z,100381.19
2023-05-02T11:22:19.297Z,100380.44
2023-05-02T11:25:36.779Z,100380.94
2023-05-02T11:28:42.764Z,100378.78
2023-05-02T11:31:52.687Z,100364.34
2023-05-02T11:34:56.863Z,100363.59
2023-05-02T11:38:04.791Z,100376.69
2023-05-02T11:41:07.588Z,100372.53
2023-05-02T11:44:10.687Z,100370.03
2023-05-02T11:47:13.400Z,100360.66
2023-05-02T11:50:16.966Z,100355.72
2023-05-02T11:53:28.973Z,100359.22
2023-05-02T11:56:32.363Z,100364.34
2023-05-02T12:00:01.531Z,100367.06
2023-05-02T12:03:08.493Z,100350.22
2023-05-02T12:06:14.702Z,100352.47
2023-05-02T12:09:17.975Z,100366.25
2023-05-02T12:12:22.072Z,100356.41
2023-05-02T12:15:25.870Z,100362.03
2023-05-02T12:18:28.886Z,100359.59
2023-05-02T12:21:33.606Z,100342.16
2023-05-02T12:24:36.726Z,100346.56
2023-05-02T12:27:39.494Z,100341.25
2023-05-02T12:30:42.115Z,100338.59
2023-05-02T12:33:52.586Z,100357.06
2023-05-02T12:36:56.799Z,100329.19
2023-05-02T12:40:00.823Z,100330.09
2023-05-02T12:43:07.408Z,100334.34
2023-05-02T12:46:11.298Z,100336.69
2023-05-02T12:49:13.881Z,100341.28
2023-05-02T12:52:21.057Z,100329.81
2023-05-02T12:55:27.348Z,100337.19
2023-05-02T12:58:40.067Z,100345.28
2023-05-02T13:01:42.731Z,100341.03
2023-05-02T13:04:45.380Z,100341.53
2023-05-02T13:07:47.962Z,100350.75
2023-05-02T13:10:50.660Z,100341.09
2023-05-02T13:13:55.211Z,100342.66
2023-05-02T13:16:59.350Z,100341.91
2023-05-02T13:20:02.547Z,100339.97
2023-05-02T13:23:05.824Z,100324.38
2023-05-02T13:26:11.696Z,100326.25
2023-05-02T13:29:14.618Z,100327.69
2023-05-02T13:32:17.773Z,100312.00
2023-05-02T13:35:20.416Z,100318.16
2023-05-02T13:38:23.201Z,100318.28
2023-05-02T13:41:26.184Z,100316.00
2023-05-02T13:44:29.408Z,100325.50
2023-05-02T13:47:33.611Z,100336.25
2023-05-02T13:50:38.467Z,100326.91
2023-05-02T13:53:41.182Z,100325.56
2023-05-02T13:56:44.115Z,100313.41
2023-05-02T13:59:47.899Z,100333.97
2023-05-02T14:02:51.122Z,100325.59
2023-05-02T14:05:53.721Z,100334.53
2023-05-02T14:08:56.452Z,100310.00
2023-05-02T14:12:02.113Z,100318.13
2023-05-02T14:15:05.403Z,100320.59
2023-05-02T14:18:08.607Z,100311.41
2023-05-02T14:21:11.725Z,100320.31
2023-05-02T14:24:16.523Z,100324.09
2023-05-02T14:27:19.964Z,100331.38
2023-05-02T14:30:22.571Z,100321.66
2023-05-02T14:33:25.496Z,100317.03
2023-05-02T14:36:30.331Z,100318.50
2023-05-02T14:39:33.019Z,100323.91
2023-05-02T14:42:36.300Z,100326.88
2023-05-02T14:45:38.948Z,100324.00
2023-05-02T14:48:41.703Z,100325.44
2023-05-02T14:51:47.609Z,100326.91
2023-05-02T14:54:50.545Z,100330.66
2023-05-02T14:57:54.984Z,100333.16
2023-05-02T15:01:00.406Z,100324.03
2023-05-02T15:04:07.094Z,100334.00
2023-05-02T15:07:11.765Z,100331.94
2023-05-02T15:10:14.319Z,100351.84
2023-05-02T15:13:17.662Z,100341.25
2023-05-02T15:16:20.478Z,100326.50
2023-05-02T15:19:25.250Z,100331.94
2023-05-02T15:22:28.084Z,100324.44
2023-05-02T15:25:31.204Z,100327.78
2023-05-02T15:28:38.772Z,100317.97
2023-05-02T15:31:41.673Z,100322.34
2023-05-02T15:34:45.908Z,100318.16
2023-05-02T15:37:48.504Z,100329.00
2023-05-02T15:40:55.554Z,100322.13
2023-05-02T15:43:58.786Z,100316.13
2023-05-02T15:47:02.629Z,100322.16
2023-05-02T15:50:06.676Z,100313.81
2023-05-02T15:53:09.605Z,100319.44
2023-05-02T15:56:12.511Z,100309.25
2023-05-02T15:59:15.109Z,100312.81
2023-05-02T16:02:18.920Z,100310.28
2023-05-02T16:05:21.789Z,100314.66
2023-05-02T16:08:24.476Z,100313.19
2023-05-02T16:11:27.154Z,100309.03
2023-05-02T16:14:31.249Z,100307.78
2023-05-02T16:17:34.044Z,100305.28
2023-05-02T16:20:37.013Z,100314.22
2023-05-02T16:23:40.802Z,100306.97
2023-05-02T16:26:45.616Z,100307.59
2023-05-02T16:29:48.629Z,100316.94
2023-05-02T16:32:51.773Z,100314.84
2023-05-02T16:36:02.399Z,100311.50
2023-05-02T16:39:05.787Z,100314.00
2023-05-02T16:42:08.822Z,100308.78
2023-05-02T16:45:12.128Z,100314.41
2023-05-02T16:48:15.105Z,100311.88
2023-05-02T16:51:17.911Z,100314.28
2023-05-02T16:54:22.658Z,100314.69
2023-05-02T16:57:25.254Z,100322.91
2023-05-02T17:00:28.023Z,100328.47
2023-05-02T17:03:30.910Z,100335.72
2023-05-02T17:06:33.801Z,100344.25
2023-05-02T17:09:38.741Z,100339.56
2023-05-02T17:12:41.397Z,100355.22
2023-05-02T17:15:44.212Z,100355.91
2023-05-02T17:18:48.168Z,100365.16
2023-05-02T17:21:52.169Z,100363.66
2023-05-02T17:24:56.364Z,100369.75
2023-05-02T17:28:00.100Z,100374.22
2023-05-02T17:31:03.554Z,100377.69
2023-05-02T17:34:07.171Z,100367.66
2023-05-02T17:37:09.743Z,100375.88
2023-05-02T17:40:13.038Z,100370.34
2023-05-02T17:43:16.824Z,100376.09
2023-05-02T17:46:19.857Z,100372.38
2023-05-02T17:49:23.510Z,100379.72
2023-05-02T17:52:26.646Z,100384.25
2023-05-02T17:55:31.760Z,100380.00
2023-05-02T17:58:37.400Z,100383.34
2023-05-02T18:01:40.699Z,100377.97
2023-05-02T18:04:45.303Z,100387.53
2023-05-02T18:07:48.902Z,100392.53
2023-05-02T18:10:54.285Z,100386.78
2023-05-02T18:14:03.178Z,100387.25
2023-05-02T18:17:09.809Z,100382.59
2023-05-02T18:20:14.993Z,100405.59
2023-05-02T18:23:17.713Z,100398.28
2023-05-02T18:26:20.911Z,100412.22
2023-05-02T18:29:24.333Z,100411.19
2023-05-02T18:32:28.723Z,100412.03
2023-05-02T18:36:36.597Z,100434.66
2023-05-02T18:39:39.549Z,100439.91
2023-05-02T18:42:43.544Z,100444.38
2023-05-02T18:45:46.622Z,100454.34
2023-05-02T18:48:49.526Z,100449.91
2023-05-02T18:51:54.637Z,100443.09
2023-05-02T18:54:57.693Z,100458.22
2023-05-02T18:58:00.558Z,100462.13
2023-05-02T19:01:17.252Z,100461.63
2023-05-02T19:04:22.407Z,100463.66
2023-05-02T19:07:25.445Z,100473.59
2023-05-02T19:10:28.591Z,100482.59
2023-05-02T19:13:32.591Z,100494.66
2023-05-02T19:16:38.510Z,100501.59
2023-05-02T19:19:41.881Z,100514.59
2023-05-02T19:22:49.591Z,100537.44
2023-05-02T19:25:59.308Z,100538.72
2023-05-02T19:29:03.610Z,100527.47
2023-05-02T19:32:07.538Z,100519.84
2023-05-02T19:35:11.790Z,100508.41
2023-05-02T19:38:15.138Z,100505.78
2023-05-02T19:41:18.908Z,100509.19
2023-05-02T19:44:22.460Z,100508.84
2023-05-02T19:47:27.697Z,100506.16
2023-05-02T19:50:31.699Z,100494.28
2023-05-02T19:53:36.033Z,100506.22
2023-05-02T19:56:38.728Z,100502.50
2023-05-02T19:59:41.500Z,100522.34
2023-05-02T20:02:45.615Z,100524.69
2023-05-02T20:05:52.235Z,100526.34
2023-05-02T20:08:56.690Z,100528.38
2023-05-02T20:11:59.744Z,100522.84
2023-05-02T20:15:02.842Z,100528.25
2023-05-02T20:18:06.868Z,100529.44
2023-05-02T20:21:10.166Z,100537.31
2023-05-02T20:24:12.774Z,100549.56
2023-05-02T20:27:15.528Z,100540.19
2023-05-02T20:30:18.927Z,100547.41
2023-05-02T20:33:27.358Z,100564.69
2023-05-02T20:36:33.596Z,100564.00
2023-05-02T20:39:36.490Z,100558.63
2023-05-02T20:42:41.778Z,100555.63
2023-05-02T20:45:45.672Z,100561.97
2023-05-02T20:48:49.274Z,100569.84
2023-05-02T20:51:52.280Z,100568.84
2023-05-02T20:54:55.799Z,100548.09
2023-05-02T20:57:58.442Z,100550.94
2023-05-02T21:01:01.094Z,100556.94
2023-05-02T21:04:04.175Z,100558.44
2023-05-02T21:07:06.836Z,100552.25
2023-05-02T21:10:10.028Z,100538.13
2023-05-02T21:13:12.716Z,100534.59
2023-05-02T21:16:19.585Z,100550.34
2023-05-02T21:19:22.250Z,100560.53
2023-05-02T21:22:25.138Z,100546.47
2023-05-02T21:25:27.785Z,100563.75
2023-05-02T21:28:30.524Z,100568.66
2023-05-02T21:31:34.000Z,100574.53
2023-05-02T21:34:36.558Z,100572.84
2023-05-02T21:37:39.029Z,100574.34
2023-05-02T21:40:41.869Z,100564.25
2023-05-02T21:43:45.231Z,100571.63
2023-05-02T21:46:47.876Z,100578.69
2023-05-02T21:49:50.931Z,100578.53
2023-05-02T21:52:53.519Z,100580.34
2023-05-02T21:55:56.125Z,100592.41
2023-05-02T21:58:58.810Z,100601.78
2023-05-02T22:02:01.483Z,100607.84
2023-05-02T22:05:04.819Z,100616.50
2023-05-02T22:08:11.072Z,100623.19
2023-05-02T22:11:15.370Z,100629.91
2023-05-02T22:14:17.897Z,100636.56
2023-05-02T22:17:21.675Z,100636.56
2023-05-02T22:20:27.813Z,100629.22
2023-05-02T22:23:31.191Z,100639.91
2023-05-02T22:26:33.783Z,100634.84
2023-05-02T22:29:36.664Z,100636.50
2023-05-02T22:32:39.399Z,100638.53
2023-05-02T22:35:42.167Z,100641.19
2023-05-02T22:38:45.072Z,100647.84
2023-05-02T22:41:47.821Z,100637.78
2023-05-02T22:44:54.778Z,100640.78
2023-05-02T22:47:57.646Z,100645.16
2023-05-02T22:51:01.071Z,100644.16
2023-05-02T22:54:04.837Z,100636.97
2023-05-02T22:57:07.367Z,100641.78
2023-05-02T23:00:10.950Z,100632.69
2023-05-02T23:03:13.839Z,100639.91
2023-05-02T23:06:18.506Z,100634.88
2023-05-02T23:09:21.212Z,100642.22
2023-05-02T23:12:24.160Z,100645.59
2023-05-02T23:15:26.683Z,100643.75
2023-05-02T23:18:29.388Z,100643.41
2023-05-02T23:21:31.940Z,100636.00
2023-05-02T23:24:34.872Z,100641.66
2023-05-02T23:27:38.510Z,100643.31
2023-05-02T23:30:41.347Z,100644.94
2023-05-02T23:33:44.105Z,100639.00
2023-05-02T23:36:47.644Z,100636.34
2023-05-02T23:39:51.149Z,100636.97
2023-05-02T23:42:54.615Z,100638.91
2023-05-02T23:45:57.147Z,100631.19
2023-05-02T23:48:59.683Z,100634.88
2023-05-02T23:52:02.764Z,100644.56
2023-05-02T23:55:10.348Z,100637.06
2023-05-02T23:58:13.302Z,100635.47
